createdAt,value
2022-09-30T00:01:35.812Z,28.73
2022-09-30T00:04:03.692Z,25.48
2022-09-30T00:06:31.665Z,25.52
2022-09-30T00:08:59.348Z,22.98
2022-09-30T00:11:31.261Z,25.73
2022-09-30T00:13:59.066Z,28.02
2022-09-30T00:16:28.512Z,22.35
2022-09-30T00:18:57.258Z,22.45
2022-09-30T00:21:25.337Z,18.75
2022-09-30T00:23:53.012Z,20.58
2022-09-30T00:26:21.897Z,19.10
2022-09-30T00:28:50.925Z,16.73
2022-09-30T00:31:20.100Z,16.00
2022-09-30T00:34:07.035Z,14.85
2022-09-30T00:36:45.014Z,16.45
2022-09-30T00:39:26.645Z,15.10
2022-09-30T00:41:56.620Z,15.63
2022-09-30T00:44:48.221Z,15.23
2022-09-30T00:47:24.953Z,14.70
2022-09-30T00:49:52.613Z,14.45
2022-09-30T00:52:20.570Z,15.65
2022-09-30T00:54:48.165Z,14.02
2022-09-30T00:57:15.920Z,15.70
2022-09-30T00:59:45.571Z,16.30
2022-09-30T01:02:14.610Z,18.35
2022-09-30T01:04:42.606Z,18.90
2022-09-30T01:07:10.602Z,18.35
2022-09-30T01:09:40.684Z,20.00
2022-09-30T01:12:14.348Z,22.02
2022-09-30T01:14:42.101Z,22.52
2022-09-30T01:17:57.646Z,21.38
2022-09-30T01:20:47.189Z,26.35
2022-09-30T01:23:45.863Z,28.38
2022-09-30T01:26:51.838Z,30.00
2022-09-30T01:29:47.058Z,33.85
2022-09-30T01:32:26.892Z,35.78
2022-09-30T01:35:13.883Z,37.35
2022-09-30T01:38:09.832Z,36.15
2022-09-30T01:40:45.383Z,32.50
2022-09-30T01:43:37.834Z,30.63
2022-09-30T01:46:33.808Z,33.17
2022-09-30T01:49:40.115Z,39.90
2022-09-30T01:52:16.905Z,36.55
2022-09-30T01:54:50.028Z,37.00
2022-09-30T01:57:23.313Z,37.78
2022-09-30T01:59:54.774Z,35.67
2022-09-30T02:02:25.631Z,38.50
2022-09-30T02:04:58.989Z,38.30
2022-09-30T02:07:39.076Z,42.90
2022-09-30T02:10:16.290Z,42.55
2022-09-30T02:12:50.057Z,42.58
2022-09-30T02:15:22.720Z,42.72
2022-09-30T02:17:53.405Z,43.00
2022-09-30T02:20:31.756Z,40.72
2022-09-30T02:23:11.639Z,46.97
2022-09-30T02:25:42.959Z,43.40
2022-09-30T02:28:12.761Z,47.45
2022-09-30T02:30:43.296Z,49.95
2022-09-30T02:33:17.864Z,52.60
2022-09-30T02:35:50.550Z,49.53
2022-09-30T02:38:27.228Z,50.63
2022-09-30T02:41:20.745Z,49.10
2022-09-30T02:43:49.180Z,45.10
2022-09-30T02:46:27.662Z,42.22
2022-09-30T02:49:18.572Z,39.65
2022-09-30T02:52:07.847Z,41.13
2022-09-30T02:54:58.857Z,40.85
2022-09-30T02:57:39.668Z,40.45
2022-09-30T03:00:12.667Z,42.08
2022-09-30T03:02:41.375Z,42.67
2022-09-30T03:05:09.870Z,44.22
2022-09-30T03:07:40.024Z,44.53
2022-09-30T03:10:15.272Z,46.03
2022-09-30T03:13:02.299Z,47.53
2022-09-30T03:15:42.895Z,48.30
2022-09-30T03:18:17.705Z,49.72
2022-09-30T03:21:15.571Z,51.40
2022-09-30T03:23:51.510Z,51.92
2022-09-30T03:26:57.263Z,49.92
2022-09-30T03:29:27.552Z,52.70
2022-09-30T03:31:58.132Z,51.42
2022-09-30T03:34:50.252Z,53.33
2022-09-30T03:37:27.485Z,52.65
2022-09-30T03:39:57.753Z,56.75
2022-09-30T03:42:35.987Z,57.60
2022-09-30T03:45:31.847Z,59.17
2022-09-30T03:48:01.754Z,52.63
2022-09-30T03:50:29.482Z,58.05
2022-09-30T03:52:57.584Z,55.70
2022-09-30T03:55:25.556Z,59.47
2022-09-30T03:57:54.509Z,54.20
2022-09-30T04:00:22.106Z,56.17
2022-09-30T04:02:51.844Z,57.90
2022-09-30T04:05:21.160Z,53.85
2022-09-30T04:07:48.856Z,54.30
2022-09-30T04:10:16.330Z,53.50
2022-09-30T04:12:46.697Z,54.05
2022-09-30T04:15:14.384Z,54.08
2022-09-30T04:17:42.857Z,57.17
2022-09-30T04:20:10.402Z,55.25
2022-09-30T04:22:37.914Z,58.13
2022-09-30T04:25:07.433Z,61.13
2022-09-30T04:27:35.590Z,68.57
2022-09-30T04:30:03.643Z,74.57
2022-09-30T04:32:31.714Z,71.07
2022-09-30T04:34:59.303Z,71.88
2022-09-30T04:37:26.850Z,63.20
2022-09-30T04:39:54.454Z,60.70
2022-09-30T04:42:21.923Z,55.05
2022-09-30T04:44:49.450Z,56.55
2022-09-30T04:47:17.039Z,53.58
2022-09-30T04:49:44.539Z,55.63
2022-09-30T04:52:12.240Z,54.45
2022-09-30T04:54:39.834Z,58.67
2022-09-30T04:57:07.471Z,58.88
2022-09-30T04:59:35.189Z,59.80
2022-09-30T05:02:06.162Z,67.28
2022-09-30T05:04:34.133Z,69.57
2022-09-30T05:07:02.217Z,71.07
2022-09-30T05:09:30.066Z,69.18
2022-09-30T05:11:57.572Z,66.32
2022-09-30T05:14:25.364Z,78.50
2022-09-30T05:16:52.839Z,84.38
2022-09-30T05:19:20.515Z,84.88
2022-09-30T05:21:48.121Z,77.22
2022-09-30T05:24:17.960Z,77.95
2022-09-30T05:26:45.547Z,63.50
2022-09-30T05:29:13.521Z,63.47
2022-09-30T05:31:42.671Z,54.42
2022-09-30T05:34:10.837Z,53.47
2022-09-30T05:36:38.417Z,46.33
2022-09-30T05:39:06.065Z,51.17
2022-09-30T05:41:33.569Z,50.80
2022-09-30T05:44:01.468Z,52.67
2022-09-30T05:46:29.006Z,50.13
2022-09-30T05:48:57.362Z,52.95
2022-09-30T05:51:24.967Z,51.97
2022-09-30T05:53:52.572Z,54.10
2022-09-30T05:56:20.460Z,57.60
2022-09-30T05:58:48.132Z,51.40
2022-09-30T06:01:15.816Z,56.45
2022-09-30T06:03:43.804Z,57.97
2022-09-30T06:06:11.723Z,57.00
2022-09-30T06:08:40.434Z,58.05
2022-09-30T06:11:17.216Z,86.53
2022-09-30T06:13:47.595Z,64.93
2022-09-30T06:16:16.034Z,72.88
2022-09-30T06:18:43.971Z,76.68
2022-09-30T06:21:13.386Z,67.55
2022-09-30T06:23:41.161Z,58.00
2022-09-30T06:26:09.310Z,54.78
2022-09-30T06:28:37.337Z,50.30
2022-09-30T06:31:05.418Z,45.80
2022-09-30T06:33:33.648Z,43.03
2022-09-30T06:36:04.669Z,44.75
2022-09-30T06:38:32.980Z,39.70
2022-09-30T06:41:00.842Z,31.77
2022-09-30T06:43:28.627Z,62.40
2022-09-30T06:46:06.611Z,29.70
2022-09-30T06:48:40.722Z,28.00
2022-09-30T06:51:10.984Z,26.65
2022-09-30T06:53:39.939Z,28.63
2022-09-30T06:56:07.447Z,28.45
2022-09-30T06:58:35.485Z,60.25
2022-09-30T07:01:06.481Z,143.98
2022-09-30T07:03:35.011Z,85.53
2022-09-30T07:06:04.210Z,254.00
2022-09-30T07:08:32.986Z,218.18
2022-09-30T07:11:04.402Z,96.30
2022-09-30T07:13:33.451Z,64.05
2022-09-30T07:16:01.466Z,71.38
2022-09-30T07:18:29.438Z,60.97
2022-09-30T07:20:57.205Z,49.05
2022-09-30T07:23:27.146Z,38.92
2022-09-30T07:26:03.465Z,36.13
2022-09-30T07:28:33.341Z,23.38
2022-09-30T07:31:31.478Z,25.90
2022-09-30T07:33:56.836Z,25.92
2022-09-30T07:36:33.013Z,26.85
2022-09-30T07:39:05.671Z,34.95
2022-09-30T07:41:36.703Z,34.08
2022-09-30T07:44:06.615Z,40.40
2022-09-30T07:46:34.976Z,42.60
2022-09-30T07:49:05.725Z,50.42
2022-09-30T07:51:35.490Z,35.38
2022-09-30T07:54:14.969Z,35.33
2022-09-30T07:57:10.244Z,26.08
2022-09-30T07:59:32.662Z,27.98
2022-09-30T08:02:01.205Z,22.83
2022-09-30T08:04:28.934Z,26.75
2022-09-30T08:07:00.138Z,29.15
2022-09-30T08:09:29.175Z,26.55
2022-09-30T08:11:57.116Z,22.00
2022-09-30T08:14:26.309Z,24.23
2022-09-30T08:16:54.118Z,20.35
2022-09-30T08:19:22.779Z,19.13
2022-09-30T08:21:51.562Z,25.33
2022-09-30T08:24:19.703Z,32.08
2022-09-30T08:26:47.371Z,29.80
2022-09-30T08:29:20.338Z,20.77
2022-09-30T08:31:48.495Z,22.15
2022-09-30T08:34:16.155Z,27.92
2022-09-30T08:36:43.832Z,27.95
2022-09-30T08:39:11.482Z,34.63
2022-09-30T08:41:39.376Z,47.15
2022-09-30T08:44:40.856Z,74.25
2022-09-30T08:47:14.209Z,60.92
2022-09-30T08:50:05.421Z,30.45
2022-09-30T08:55:29.284Z,48.22
2022-09-30T08:57:57.165Z,26.83
2022-09-30T09:00:25.249Z,22.65
2022-09-30T09:02:59.984Z,22.13
2022-09-30T09:06:06.181Z,43.40
2022-09-30T09:08:52.259Z,38.22
2022-09-30T09:11:43.558Z,25.48
2022-09-30T09:14:31.656Z,17.08
2022-09-30T09:17:10.646Z,15.50
2022-09-30T09:19:46.048Z,50.78
2022-09-30T09:22:14.034Z,22.15
2022-09-30T09:24:46.309Z,15.48
2022-09-30T09:27:40.469Z,14.10
2022-09-30T09:30:12.764Z,14.75
2022-09-30T09:32:40.682Z,17.73
2022-09-30T09:35:38.672Z,18.85
2022-09-30T09:38:29.200Z,17.05
2022-09-30T09:41:33.511Z,19.07
2022-09-30T09:44:39.169Z,19.00
2022-09-30T09:47:15.332Z,19.00
2022-09-30T09:49:55.336Z,19.02
2022-09-30T09:52:40.881Z,19.45
2022-09-30T09:55:11.402Z,21.08
2022-09-30T09:57:40.453Z,20.67
2022-09-30T10:00:31.806Z,20.70
2022-09-30T10:03:00.741Z,22.02
2022-09-30T10:05:30.309Z,24.27
2022-09-30T10:08:16.545Z,23.53
2022-09-30T10:10:56.301Z,22.70
2022-09-30T10:13:43.444Z,23.55
2022-09-30T10:16:28.269Z,22.73
2022-09-30T10:18:56.348Z,24.27
2022-09-30T10:21:25.397Z,24.10
2022-09-30T10:23:53.077Z,25.25
2022-09-30T10:28:57.261Z,24.35
2022-09-30T10:31:30.803Z,24.60
2022-09-30T10:34:20.612Z,22.98
2022-09-30T10:36:48.372Z,22.13
2022-09-30T10:39:19.648Z,19.52
2022-09-30T10:41:47.229Z,20.55
2022-09-30T10:44:17.409Z,20.83
2022-09-30T10:46:46.083Z,22.10
2022-09-30T10:49:37.327Z,20.65
2022-09-30T10:52:04.935Z,22.02
2022-09-30T10:54:36.347Z,20.23
2022-09-30T10:57:33.687Z,20.70
2022-09-30T11:00:19.699Z,19.67
2022-09-30T11:02:59.422Z,20.15
2022-09-30T11:05:33.466Z,19.55
2022-09-30T11:08:03.177Z,20.80
2022-09-30T11:10:54.466Z,21.00
2022-09-30T11:13:36.857Z,22.35
2022-09-30T11:16:21.783Z,25.25
2022-09-30T11:18:54.325Z,30.70
2022-09-30T11:21:33.980Z,38.17
2022-09-30T11:24:14.132Z,46.30
2022-09-30T11:26:43.750Z,46.42
2022-09-30T11:29:45.111Z,48.78
2022-09-30T11:34:55.308Z,43.22
2022-09-30T11:37:28.681Z,36.97
2022-09-30T11:40:08.605Z,33.80
2022-09-30T11:42:44.781Z,36.28
2022-09-30T11:45:21.953Z,31.77
2022-09-30T11:47:58.450Z,28.77
2022-09-30T11:50:41.129Z,30.40
2022-09-30T11:53:17.780Z,25.88
2022-09-30T11:56:01.505Z,24.35
2022-09-30T11:58:41.459Z,24.55
2022-09-30T12:01:09.716Z,24.13
2022-09-30T12:03:40.633Z,22.13
2022-09-30T12:06:41.619Z,23.13
2022-09-30T12:09:17.038Z,18.35
2022-09-30T12:11:45.791Z,17.60
2022-09-30T12:14:23.077Z,16.83
2022-09-30T12:16:51.692Z,17.23
2022-09-30T12:19:35.322Z,16.58
2022-09-30T12:22:28.705Z,16.10
2022-09-30T12:24:56.438Z,16.52
2022-09-30T12:27:35.022Z,16.13
2022-09-30T12:30:17.900Z,15.95
2022-09-30T12:33:13.363Z,19.33
2022-09-30T12:35:52.406Z,25.00
2022-09-30T12:38:38.832Z,19.58
2022-09-30T12:41:18.918Z,20.80
2022-09-30T12:43:58.478Z,28.65
2022-09-30T12:46:47.393Z,23.23
2022-09-30T12:49:20.155Z,18.08
2022-09-30T12:51:53.742Z,22.65
2022-09-30T12:54:25.874Z,29.58
2022-09-30T12:57:00.652Z,46.63
2022-09-30T12:59:33.030Z,23.95
2022-09-30T13:02:01.384Z,30.27
2022-09-30T13:04:39.406Z,21.30
2022-09-30T13:07:11.287Z,36.22
2022-09-30T13:09:59.162Z,32.85
2022-09-30T13:12:40.904Z,25.30
2022-09-30T13:15:42.009Z,21.75
2022-09-30T13:18:27.008Z,32.78
2022-09-30T13:21:18.981Z,42.75
2022-09-30T13:23:54.343Z,32.30
2022-09-30T13:26:41.871Z,41.20
2022-09-30T13:29:16.308Z,24.67
2022-09-30T13:31:50.030Z,21.15
2022-09-30T13:34:23.498Z,20.25
2022-09-30T13:36:51.131Z,20.20
2022-09-30T13:39:29.992Z,18.48
2022-09-30T13:42:00.485Z,19.52
2022-09-30T13:44:36.378Z,19.20
2022-09-30T13:47:19.531Z,21.40
2022-09-30T13:50:10.234Z,22.15
2022-09-30T13:52:38.411Z,22.30
2022-09-30T13:55:20.431Z,20.67
2022-09-30T13:58:08.098Z,19.73
2022-09-30T14:01:19.246Z,23.45
2022-09-30T14:04:02.462Z,21.88
2022-09-30T14:07:03.686Z,19.65
2022-09-30T14:10:09.275Z,15.93
2022-09-30T14:12:53.649Z,14.38
2022-09-30T14:15:38.954Z,13.55
2022-09-30T14:18:25.104Z,13.13
2022-09-30T14:21:05.493Z,13.43
2022-09-30T14:23:33.033Z,14.73
2022-09-30T14:26:24.962Z,14.05
2022-09-30T14:29:04.329Z,13.52
2022-09-30T14:31:32.443Z,15.38
2022-09-30T14:34:00.038Z,14.70
2022-09-30T14:36:27.668Z,14.90
2022-09-30T14:38:58.982Z,14.48
2022-09-30T14:41:26.667Z,15.40
2022-09-30T14:43:56.960Z,16.20
2022-09-30T14:46:41.234Z,16.23
2022-09-30T14:49:12.011Z,18.05
2022-09-30T14:51:44.814Z,18.30
2022-09-30T14:54:26.648Z,20.63
2022-09-30T14:56:57.313Z,18.83
2022-09-30T14:59:27.818Z,20.83
2022-09-30T15:02:01.233Z,20.08
2022-09-30T15:04:39.275Z,19.58
2022-09-30T15:07:11.787Z,21.88
2022-09-30T15:09:42.326Z,24.13
2022-09-30T15:12:18.603Z,25.25
2022-09-30T15:15:25.723Z,25.20
2022-09-30T15:17:55.608Z,24.90
2022-09-30T15:20:32.554Z,24.92
2022-09-30T15:23:04.464Z,24.92
2022-09-30T15:25:32.160Z,23.90
2022-09-30T15:28:00.096Z,25.45
2022-09-30T15:30:29.393Z,24.27
2022-09-30T15:33:00.855Z,24.35
2022-09-30T15:35:28.807Z,24.63
2022-09-30T15:38:09.940Z,25.38
2022-09-30T15:40:46.271Z,26.70
2022-09-30T15:43:17.345Z,28.45
2022-09-30T15:45:46.110Z,27.17
2022-09-30T15:48:13.687Z,25.95
2022-09-30T15:50:45.970Z,27.17
2022-09-30T15:53:25.483Z,27.23
2022-09-30T15:55:55.768Z,28.20
2022-09-30T15:58:29.794Z,29.40
2022-09-30T16:01:11.048Z,31.70
2022-09-30T16:03:38.720Z,28.63
2022-09-30T16:06:11.197Z,29.33
2022-09-30T16:08:47.209Z,29.15
2022-09-30T16:11:20.679Z,29.48
2022-09-30T16:13:49.440Z,28.02
2022-09-30T16:16:21.815Z,28.88
2022-09-30T16:18:50.109Z,29.55
2022-09-30T16:21:50.765Z,29.90
2022-09-30T16:24:21.362Z,46.83
2022-09-30T16:26:50.055Z,72.72
2022-09-30T16:29:18.077Z,32.22
2022-09-30T16:31:46.298Z,44.75
2022-09-30T16:34:27.644Z,32.30
2022-09-30T16:37:04.146Z,28.90
2022-09-30T16:39:31.761Z,27.20
2022-09-30T16:41:59.540Z,23.20
2022-09-30T16:44:27.071Z,24.00
2022-09-30T16:46:54.707Z,23.77
2022-09-30T16:49:22.252Z,23.60
2022-09-30T16:51:50.472Z,23.08
2022-09-30T16:54:18.054Z,22.70
2022-09-30T16:56:48.119Z,21.58
2022-09-30T16:59:17.519Z,19.87
2022-09-30T17:01:45.583Z,21.30
2022-09-30T17:04:15.384Z,19.80
2022-09-30T17:06:46.241Z,18.52
2022-09-30T17:09:13.847Z,18.30
2022-09-30T17:11:42.955Z,18.35
2022-09-30T17:14:10.475Z,19.25
2022-09-30T17:16:38.244Z,20.08
2022-09-30T17:19:06.305Z,18.90
2022-09-30T17:21:33.936Z,22.13
2022-09-30T17:24:01.779Z,42.47
2022-09-30T17:26:29.639Z,36.30
2022-09-30T17:29:14.676Z,33.55
2022-09-30T17:31:46.944Z,29.15
2022-09-30T17:34:16.683Z,22.20
2022-09-30T17:36:44.359Z,22.75
2022-09-30T17:39:12.077Z,23.10
2022-09-30T17:41:58.993Z,22.10
2022-09-30T17:44:26.654Z,35.03
2022-09-30T17:47:00.670Z,25.48
2022-09-30T17:49:33.275Z,36.72
2022-09-30T17:52:01.254Z,27.73
2022-09-30T17:54:29.110Z,29.27
2022-09-30T17:56:57.411Z,28.88
2022-09-30T17:59:27.045Z,28.33
2022-09-30T18:01:56.571Z,24.27
2022-09-30T18:04:26.218Z,25.55
2022-09-30T18:06:54.425Z,32.17
2022-09-30T18:09:22.708Z,44.75
2022-09-30T18:11:53.474Z,46.17
2022-09-30T18:14:21.128Z,32.83
2022-09-30T18:16:49.717Z,29.05
2022-09-30T18:19:17.466Z,22.38
2022-09-30T18:21:45.052Z,26.05
2022-09-30T18:24:12.938Z,27.95
2022-09-30T18:26:40.524Z,29.30
2022-09-30T18:29:08.953Z,34.58
2022-09-30T18:31:38.622Z,38.00
2022-09-30T18:34:06.782Z,37.53
2022-09-30T18:36:37.486Z,36.85
2022-09-30T18:39:05.279Z,33.73
2022-09-30T18:41:35.820Z,34.25
2022-09-30T18:44:04.090Z,27.80
2022-09-30T18:46:31.799Z,30.30
2022-09-30T18:48:59.551Z,23.70
2022-09-30T18:51:27.118Z,21.73
2022-09-30T18:53:58.964Z,20.67
2022-09-30T18:56:32.052Z,21.10
2022-09-30T18:59:01.187Z,20.38
2022-09-30T19:01:29.143Z,22.38
2022-09-30T19:03:56.940Z,17.70
2022-09-30T19:06:24.535Z,17.85
2022-09-30T19:08:52.092Z,17.80
2022-09-30T19:11:19.665Z,19.17
2022-09-30T19:13:48.132Z,20.02
2022-09-30T19:16:18.788Z,21.40
2022-09-30T19:18:46.924Z,21.63
2022-09-30T19:21:17.890Z,17.15
2022-09-30T19:26:15.632Z,17.58
2022-09-30T19:28:43.160Z,18.48
2022-09-30T19:31:12.580Z,15.88
2022-09-30T19:33:51.565Z,15.88
2022-09-30T19:36:23.438Z,17.20
2022-09-30T19:38:54.418Z,16.20
2022-09-30T19:41:30.877Z,15.20
2022-09-30T19:44:02.228Z,16.52
2022-09-30T19:46:30.342Z,15.65
2022-09-30T19:48:58.265Z,14.88
2022-09-30T19:51:28.275Z,15.73
2022-09-30T19:54:04.597Z,13.88
2022-09-30T19:56:35.508Z,16.38
2022-09-30T19:59:03.291Z,14.35
2022-09-30T20:01:31.641Z,14.98
2022-09-30T20:04:00.343Z,14.65
2022-09-30T20:06:28.274Z,14.20
2022-09-30T20:09:00.421Z,18.90
2022-09-30T20:11:30.144Z,13.68
2022-09-30T20:14:16.735Z,13.98
2022-09-30T20:16:44.822Z,13.77
2022-09-30T20:19:12.464Z,14.38
2022-09-30T20:21:43.440Z,14.43
2022-09-30T20:24:12.419Z,14.45
2022-09-30T20:26:41.036Z,13.13
2022-09-30T20:29:08.998Z,14.07
2022-09-30T20:31:38.036Z,13.70
2022-09-30T20:34:05.704Z,14.32
2022-09-30T20:36:35.030Z,14.18
2022-09-30T20:39:03.295Z,13.48
2022-09-30T20:41:35.820Z,14.52
2022-09-30T20:44:08.563Z,13.45
2022-09-30T20:46:36.196Z,15.43
2022-09-30T20:49:04.308Z,14.73
2022-09-30T20:51:32.490Z,14.25
2022-09-30T20:54:00.551Z,17.42
2022-09-30T20:56:39.379Z,15.32
2022-09-30T20:59:17.298Z,14.05
2022-09-30T21:01:44.922Z,14.40
2022-09-30T21:04:12.525Z,13.30
2022-09-30T21:06:40.126Z,14.43
2022-09-30T21:09:07.700Z,14.23
2022-09-30T21:11:41.098Z,14.68
2022-09-30T21:14:09.533Z,14.63
2022-09-30T21:16:37.344Z,15.35
2022-09-30T21:19:05.659Z,15.00
2022-09-30T21:21:33.404Z,14.93
2022-09-30T21:24:01.641Z,14.57
2022-09-30T21:26:30.109Z,15.68
2022-09-30T21:28:57.779Z,14.50
2022-09-30T21:31:29.278Z,14.23
2022-09-30T21:33:58.717Z,14.93
2022-09-30T21:36:27.244Z,15.52
2022-09-30T21:38:55.106Z,15.40
2022-09-30T21:41:22.969Z,14.52
2022-09-30T21:43:53.107Z,15.60
2022-09-30T21:46:20.718Z,14.98
2022-09-30T21:48:48.345Z,15.65
2022-09-30T21:51:16.917Z,15.68
2022-09-30T21:53:44.558Z,15.43
2022-09-30T21:56:12.399Z,15.18
2022-09-30T21:58:41.221Z,14.63
2022-09-30T22:01:08.824Z,15.63
2022-09-30T22:03:39.494Z,15.63
2022-09-30T22:06:08.161Z,16.73
2022-09-30T22:08:40.939Z,16.40
2022-09-30T22:11:11.353Z,16.02
2022-09-30T22:13:47.343Z,16.23
2022-09-30T22:16:20.018Z,16.30
2022-09-30T22:18:47.587Z,16.30
2022-09-30T22:21:15.212Z,16.60
2022-09-30T22:23:43.972Z,17.92
2022-09-30T22:26:18.740Z,16.15
2022-09-30T22:28:46.874Z,17.35
2022-09-30T22:31:19.619Z,17.95
2022-09-30T22:34:10.713Z,18.70
2022-09-30T22:36:56.807Z,18.80
2022-09-30T22:39:24.533Z,18.05
2022-09-30T22:41:55.594Z,18.25
2022-09-30T22:44:28.224Z,18.00
2022-09-30T22:46:56.249Z,18.52
2022-09-30T22:49:24.584Z,18.23
2022-09-30T22:51:53.076Z,18.65
2022-09-30T22:54:20.722Z,17.52
2022-09-30T22:56:51.689Z,18.70
2022-09-30T22:59:20.943Z,18.03
2022-09-30T23:01:49.308Z,19.55
2022-09-30T23:04:17.632Z,18.27
2022-09-30T23:06:48.466Z,18.58
2022-09-30T23:09:16.879Z,17.73
2022-09-30T23:11:45.422Z,20.95
2022-09-30T23:14:13.235Z,23.95
2022-09-30T23:16:40.950Z,18.95
2022-09-30T23:19:08.641Z,17.15
2022-09-30T23:21:36.559Z,16.85
2022-09-30T23:24:04.726Z,18.13
2022-09-30T23:26:32.775Z,17.38
2022-09-30T23:29:27.207Z,17.65
2022-09-30T23:31:55.421Z,16.48
2022-09-30T23:34:22.994Z,18.05
2022-09-30T23:36:50.779Z,17.05
2022-09-30T23:39:21.621Z,18.90
2022-09-30T23:41:50.870Z,22.15
2022-09-30T23:44:19.170Z,27.92
2022-09-30T23:47:05.872Z,28.38
2022-09-30T23:49:36.000Z,20.13
2022-09-30T23:52:12.000Z,20.70
2022-09-30T23:54:42.053Z,17.75
2022-09-30T23:57:10.792Z,17.10
2022-09-30T23:59:38.768Z,26.88
